Time;durP1;ratioP1;P1;durP2;ratioP2;P2;SDS_P1;SDS_P2;PMS_P1;PMS_P2;Temp;Humidity;BMP_temperature;BMP_pressure;BME280_temperature;BME280_humidity;BME280_pressure;Samples;Min_cycle;Max_cycle;Signal;HPM_P1;HPM_P2
2021/08/01 00:02:22;;;;;;;10.30;5.97;;;;;;;26.43;57.42;99719.88;5065688;28;20048;-84
2021/08/01 00:05:08;;;;;;;;;;;;;;;26.35;57.42;99722.13;5076506;28;20051;-83
2021/08/01 00:07:52;;;;;;;9.20;6.00;;;;;;;26.29;57.84;99741.41;5056163;28;19913;-83
2021/08/01 00:10:38;;;;;;;8.60;6.18;;;;;;;26.41;57.49;99739.06;5067344;28;20055;-84
2021/08/01 00:13:24;;;;;;;7.40;6.25;;;;;;;26.25;58.06;99735.19;5064619;28;20063;-84
2021/08/01 00:16:08;;;;;;;11.70;6.80;;;;;;;26.18;58.38;99724.19;5059322;28;20056;-85
2021/08/01 00:18:56;;;;;;;8.68;6.50;;;;;;;26.19;58.43;99725.78;5073997;28;20048;-84
2021/08/01 00:21:41;;;;;;;16.17;7.85;;;;;;;26.22;58.62;99730.47;5052297;28;20048;-84
2021/08/01 00:24:25;;;;;;;12.13;6.45;;;;;;;26.15;58.94;99724.31;5056371;28;20418;-83
2021/08/01 00:27:10;;;;;;;8.77;6.13;;;;;;;26.26;58.79;99722.78;5059000;28;20043;-83
2021/08/01 00:29:54;;;;;;;10.15;5.88;;;;;;;26.27;58.88;99715.97;5047907;28;20047;-84
2021/08/01 00:32:41;;;;;;;9.00;6.72;;;;;;;26.34;58.32;99714.97;5067565;28;20040;-82
2021/08/01 00:35:26;;;;;;;9.25;6.72;;;;;;;26.39;57.76;99709.63;5067747;28;20051;-83
2021/08/01 00:38:11;;;;;;;9.23;6.05;;;;;;;26.47;57.57;99717.75;5061484;28;20048;-84
2021/08/01 00:40:56;;;;;;;7.65;6.32;;;;;;;26.34;58.15;99735.28;5051713;28;20052;-83
2021/08/01 00:43:41;;;;;;;8.75;5.65;;;;;;;26.31;58.35;99724.25;5058621;28;20055;-86
2021/08/01 00:46:25;;;;;;;9.98;5.75;;;;;;;26.31;58.68;99729.81;5053846;28;20052;-86
2021/08/01 00:49:10;;;;;;;10.45;6.50;;;;;;;26.27;59.01;99727.13;5060713;28;20048;-84
2021/08/01 00:51:55;;;;;;;11.65;6.18;;;;;;;26.25;58.96;99726.03;5061965;28;20044;-84
2021/08/01 00:54:40;;;;;;;7.13;6.18;;;;;;;26.32;58.75;99728.56;5063918;28;20047;-85
2021/08/01 00:57:27;;;;;;;8.68;5.95;;;;;;;26.23;58.77;99722.91;5026215;28;20040;-83
2021/08/01 01:03:18;;;;;;;7.10;6.13;;;;;;;26.20;58.98;99713.41;5043631;28;20048;-82
2021/08/01 01:06:24;;;;;;;9.32;5.30;;;;;;;26.26;58.32;99697.69;5055883;28;20048;-82
2021/08/01 01:09:23;;;;;;;10.68;6.68;;;;;;;26.29;57.95;99693.25;5064609;28;20047;-83
2021/08/01 01:12:17;;;;;;;14.13;5.63;;;;;;;26.32;57.74;99689.53;5059368;28;20406;-83
2021/08/01 01:15:11;;;;;;;7.88;6.22;;;;;;;26.38;57.25;99663.44;5043645;28;20052;-83
2021/08/01 01:17:59;;;;;;;11.93;4.88;;;;;;;26.45;57.41;99647.72;5049345;28;20529;-86
2021/08/01 01:21:09;;;;;;;9.57;5.43;;;;;;;26.39;57.59;99653.88;5030602;28;20068;-83
2021/08/01 01:24:13;;;;;;;6.95;5.88;;;;;;;26.28;57.74;99656.22;5057538;28;20561;-84
2021/08/01 01:27:24;;;;;;;8.32;5.88;;;;;;;26.26;57.95;99664.22;5055058;28;20047;-83
2021/08/01 01:30:10;;;;;;;;;;;;;;;26.22;58.14;99680.31;5042456;28;20044;-82
2021/08/01 01:33:09;;;;;;;10.95;6.45;;;;;;;26.13;58.67;99682.94;5050040;28;19912;-82
2021/08/01 01:36:01;;;;;;;11.95;7.30;;;;;;;26.15;58.53;99686.09;5050711;28;20064;-82
2021/08/01 01:38:48;;;;;;;7.68;5.97;;;;;;;26.19;58.06;99689.53;5044762;28;20043;-85
2021/08/01 01:41:50;;;;;;;6.57;5.57;;;;;;;26.26;58.27;99678.16;5052373;28;20039;-85
2021/08/01 01:44:43;;;;;;;8.20;5.35;;;;;;;26.28;58.34;99674.94;5062912;28;20055;-81
2021/08/01 01:47:30;;;;;;;11.30;6.35;;;;;;;26.28;59.17;99684.09;5055311;28;20044;-84
2021/08/01 01:50:17;;;;;;;7.45;5.35;;;;;;;26.30;59.50;99676.06;5062975;28;20056;-83
2021/08/01 01:53:05;;;;;;;7.90;5.72;;;;;;;26.30;59.03;99670.50;5055586;28;20402;-84
2021/08/01 01:55:51;;;;;;;9.43;5.68;;;;;;;26.27;59.43;99665.81;5042755;28;20426;-86
2021/08/01 01:58:38;;;;;;;8.68;5.63;;;;;;;26.18;59.69;99664.88;5052600;28;20036;-83
2021/08/01 02:01:23;;;;;;;11.55;5.68;;;;;;;26.10;59.83;99663.56;5064044;28;20047;-84
2021/08/01 02:04:09;;;;;;;8.38;5.72;;;;;;;26.14;59.77;99665.00;5064580;28;20516;-86
2021/08/01 02:07:30;;;;;;;9.20;6.35;;;;;;;26.13;59.83;99659.88;5023361;28;20486;-86
2021/08/01 02:10:44;;;;;;;12.30;6.43;;;;;;;26.03;60.17;99669.34;5064478;28;20051;-84
2021/08/01 02:13:50;;;;;;;10.50;6.53;;;;;;;26.02;59.76;99665.00;5069847;28;20044;-83
2021/08/01 02:16:39;;;;;;;7.13;6.05;;;;;;;25.98;59.86;99662.34;5046947;28;20052;-84
2021/08/01 02:19:27;;;;;;;11.25;6.20;;;;;;;25.97;59.97;99663.56;5059146;28;20052;-82
2021/08/01 02:22:16;;;;;;;12.85;6.57;;;;;;;26.03;60.25;99652.63;5042744;28;20044;-84
2021/08/01 02:25:03;;;;;;;10.30;6.10;;;;;;;25.95;60.17;99641.72;5038645;28;20048;-84
2021/08/01 02:27:50;;;;;;;11.80;6.72;;;;;;;25.91;60.23;99640.25;5052631;28;20047;-83
2021/08/01 02:30:37;;;;;;;13.35;7.55;;;;;;;25.91;60.06;99641.03;5058803;28;20051;-84
2021/08/01 02:33:28;;;;;;;8.68;6.10;;;;;;;25.94;60.76;99639.38;5050398;28;20060;-84
2021/08/01 02:36:20;;;;;;;10.60;7.25;;;;;;;25.90;60.18;99647.84;5045836;28;20052;-83
2021/08/01 02:39:09;;;;;;;10.90;6.38;;;;;;;25.93;59.65;99635.03;5063060;28;20059;-83
2021/08/01 02:41:57;;;;;;;8.80;5.90;;;;;;;25.84;60.07;99612.63;5060994;28;20048;-82
2021/08/01 02:44:45;;;;;;;8.13;5.72;;;;;;;25.77;59.69;99554.34;5034492;28;20052;-84
2021/08/01 02:47:33;;;;;;;6.75;4.72;;;;;;;25.61;59.51;99548.91;5034377;28;20516;-86
2021/08/01 02:50:22;;;;;;;7.57;4.20;;;;;;;25.61;58.63;99563.59;5066492;28;20044;-84
2021/08/01 02:53:11;;;;;;;6.40;4.03;;;;;;;25.71;58.19;99589.56;5044839;28;20048;-85
2021/08/01 02:56:01;;;;;;;9.90;4.18;;;;;;;25.76;58.05;99608.50;5059642;28;20541;-85
2021/08/01 02:58:53;;;;;;;9.13;4.45;;;;;;;25.74;57.72;99613.75;5024092;28;20533;-83
2021/08/01 03:01:39;;;;;;;7.55;4.50;;;;;;;25.72;57.22;99610.63;5048471;28;20039;-81
2021/08/01 03:04:26;;;;;;;9.63;4.53;;;;;;;25.55;58.41;99610.72;5038998;28;20063;-84
2021/08/01 03:07:12;;;;;;;8.95;5.00;;;;;;;25.32;59.75;99613.78;5057730;28;20052;-82
2021/08/01 03:09:58;;;;;;;7.05;5.32;;;;;;;25.09;61.67;99631.50;5049722;28;20055;-82
2021/08/01 03:12:44;;;;;;;9.75;5.28;;;;;;;25.14;61.87;99646.91;5059616;28;20036;-82
2021/08/01 03:15:32;;;;;;;8.82;5.95;;;;;;;25.02;62.94;99631.72;5050354;28;20048;-82
2021/08/01 03:18:17;;;;;;;10.48;6.43;;;;;;;24.93;63.21;99608.53;5032353;28;20044;-82
2021/08/01 03:21:02;;;;;;;9.88;6.15;;;;;;;24.98;63.35;99614.34;5031624;28;20059;-85
2021/08/01 03:27:09;;;;;;;10.30;6.10;;;;;;;25.03;63.54;99629.72;4988889;28;19921;-73
2021/08/01 03:29:54;;;;;;;8.13;6.40;;;;;;;24.89;64.08;99641.25;4998545;28;20042;-73
2021/08/01 03:32:39;;;;;;;10.68;6.28;;;;;;;24.88;64.21;99636.88;4976265;28;20407;-72
2021/08/01 03:35:25;;;;;;;20.85;6.47;;;;;;;24.91;64.11;99644.34;4984020;28;20053;-73
2021/08/01 03:38:29;;;;;;;10.75;6.15;;;;;;;24.90;64.48;99648.34;4992777;28;20041;-72
2021/08/01 03:41:45;;;;;;;11.80;6.43;;;;;;;24.86;64.67;99645.63;4969000;28;20049;-71
2021/08/01 03:44:37;;;;;;;8.70;6.53;;;;;;;24.77;65.02;99645.47;4989783;28;20049;-72
2021/08/01 03:47:22;;;;;;;12.40;6.53;;;;;;;24.77;64.87;99636.34;4997036;28;20057;-73
2021/08/01 03:50:08;;;;;;;10.18;6.50;;;;;;;24.70;65.16;99629.75;4993116;28;20050;-73
2021/08/01 03:52:53;;;;;;;15.10;6.57;;;;;;;24.72;65.60;99623.78;4986157;28;20054;-73
2021/08/01 03:55:38;;;;;;;7.35;6.10;;;;;;;24.86;64.67;99622.59;4994264;28;20045;-72
2021/08/01 03:58:23;;;;;;;11.98;6.97;;;;;;;24.98;64.26;99616.34;4987448;28;20659;-72
2021/08/01 04:01:08;;;;;;;9.90;6.00;;;;;;;24.88;64.32;99623.75;4990478;28;20526;-73
2021/08/01 04:03:53;;;;;;;13.98;8.32;;;;;;;24.95;64.25;99606.06;4973197;28;20046;-73
2021/08/01 04:06:38;;;;;;;10.68;6.65;;;;;;;24.88;64.43;99603.50;4977809;28;20054;-73
2021/08/01 04:09:24;;;;;;;12.30;6.63;;;;;;;24.62;65.42;99595.03;4984518;28;20513;-72
2021/08/01 04:12:09;;;;;;;9.75;7.22;;;;;;;24.70;64.92;99588.06;4977755;28;20053;-73
2021/08/01 04:14:54;;;;;;;7.93;6.10;;;;;;;24.72;64.69;99584.84;4982358;28;20514;-72
2021/08/01 04:17:39;;;;;;;9.18;6.47;;;;;;;24.62;64.85;99563.66;4990238;28;20443;-73
2021/08/01 04:20:24;;;;;;;8.77;7.65;;;;;;;24.76;63.73;99565.28;4989145;28;20407;-72
2021/08/01 04:23:09;;;;;;;10.07;6.50;;;;;;;24.82;63.42;99555.16;4998287;28;20057;-72
2021/08/01 04:25:54;;;;;;;9.10;5.78;;;;;;;24.85;63.23;99552.28;4958258;28;20511;-72
2021/08/01 04:28:38;;;;;;;;;;;;;;;24.76;63.54;99543.81;4995492;28;20416;-72
2021/08/01 04:31:24;;;;;;;10.02;5.72;;;;;;;24.73;63.71;99543.91;4992630;28;19918;-72
2021/08/01 04:34:11;;;;;;;7.93;6.28;;;;;;;24.62;63.89;99544.22;4996289;28;20046;-72
2021/08/01 04:36:56;;;;;;;7.32;6.55;;;;;;;24.67;63.80;99538.88;5001314;28;20053;-72
2021/08/01 04:39:40;;;;;;;13.30;7.25;;;;;;;24.71;63.45;99536.78;4996865;28;20049;-72
2021/08/01 04:42:25;;;;;;;;;;;;;;;24.74;63.25;99548.25;4992217;28;20049;-72
2021/08/01 04:45:11;;;;;;;17.20;8.90;;;;;;;24.69;63.60;99547.56;4979052;28;21144;-73
2021/08/01 04:47:56;;;;;;;17.83;9.32;;;;;;;24.76;63.31;99549.38;4977729;28;20053;-73
2021/08/01 04:50:41;;;;;;;14.32;9.18;;;;;;;24.74;63.23;99542.69;4995314;28;20053;-72
2021/08/01 04:53:26;;;;;;;13.18;7.18;;;;;;;24.80;63.22;99533.34;4993413;28;20272;-73
2021/08/01 04:56:11;;;;;;;9.82;6.97;;;;;;;24.86;62.94;99537.16;5001220;28;20061;-73
2021/08/01 04:58:56;;;;;;;12.23;6.22;;;;;;;24.82;62.96;99555.16;4979121;28;20057;-72
2021/08/01 05:01:41;;;;;;;14.20;7.70;;;;;;;24.72;63.46;99545.91;4995193;28;20053;-72
2021/08/01 05:04:30;;;;;;;14.43;7.25;;;;;;;24.68;64.07;99545.22;4994173;28;20041;-73
2021/08/01 05:07:14;;;;;;;14.05;8.35;;;;;;;24.65;63.68;99549.66;4997676;28;20049;-72
2021/08/01 05:09:59;;;;;;;;;;;;;;;24.64;63.72;99550.09;4977129;28;20046;-73
2021/08/01 05:12:45;;;;;;;10.88;7.13;;;;;;;24.69;63.99;99539.22;5000324;28;19918;-72
2021/08/01 05:15:30;;;;;;;10.60;7.32;;;;;;;24.84;63.35;99539.59;4990408;28;20041;-73
2021/08/01 05:18:15;;;;;;;9.50;6.65;;;;;;;24.84;63.56;99545.16;5000765;28;20057;-73
2021/08/01 05:21:00;;;;;;;16.73;7.82;;;;;;;25.01;63.52;99543.13;4988183;28;20046;-72
2021/08/01 05:23:45;;;;;;;10.25;8.07;;;;;;;25.04;63.75;99545.03;4987684;28;20042;-73
2021/08/01 05:26:30;;;;;;;13.60;8.50;;;;;;;25.10;63.76;99534.91;4974192;28;20057;-73
2021/08/01 05:29:15;;;;;;;11.63;8.82;;;;;;;25.10;63.79;99540.47;4993734;28;20420;-73
2021/08/01 05:32:00;;;;;;;12.00;8.63;;;;;;;25.11;63.97;99542.03;4981632;28;20049;-73
2021/08/01 05:34:45;;;;;;;12.77;8.02;;;;;;;25.16;63.64;99546.25;4998289;28;20099;-72
2021/08/01 05:37:30;;;;;;;13.20;9.02;;;;;;;24.97;65.18;99564.72;5000072;28;20061;-73
2021/08/01 05:40:16;;;;;;;15.68;9.18;;;;;;;24.88;65.68;99575.69;4988182;28;20061;-73
2021/08/01 05:43:01;;;;;;;14.35;8.75;;;;;;;24.94;65.87;99571.91;4967631;28;20041;-72
2021/08/01 05:45:47;;;;;;;14.70;8.30;;;;;;;25.00;65.28;99583.28;4979946;28;20065;-72
2021/08/01 05:48:32;;;;;;;13.05;9.30;;;;;;;24.97;65.63;99584.97;5000367;28;20057;-72
2021/08/01 05:51:19;;;;;;;16.10;8.05;;;;;;;25.05;65.77;99577.19;4996497;28;20049;-72
2021/08/01 05:54:04;;;;;;;20.00;8.45;;;;;;;25.14;65.52;99585.69;4983577;28;20647;-73
2021/08/01 05:56:49;;;;;;;15.85;8.98;;;;;;;25.14;65.59;99594.78;4999755;28;20057;-73
2021/08/01 05:59:33;;;;;;;;;;;;;;;25.10;65.73;99598.91;4986301;28;20061;-72
2021/08/01 06:02:19;;;;;;;;;;;;;;;25.09;65.87;99603.69;4984000;28;20375;-72
2021/08/01 06:05:04;;;;;;;16.80;9.70;;;;;;;25.13;65.98;99595.25;4989193;28;19913;-72
2021/08/01 06:07:49;;;;;;;21.15;11.65;;;;;;;25.06;66.54;99601.00;4982465;28;20743;-72
2021/08/01 06:10:33;;;;;;;17.00;10.85;;;;;;;25.14;66.54;99603.13;4990564;28;20054;-73
2021/08/01 06:13:18;;;;;;;;;;;;;;;25.12;66.75;99611.16;4986988;28;20054;-72
2021/08/01 06:16:03;;;;;;;23.33;10.82;;;;;;;25.14;66.78;99611.47;4990080;28;19913;-72
2021/08/01 06:18:47;;;;;;;11.95;9.77;;;;;;;25.10;66.44;99599.69;4990417;28;20122;-72
2021/08/01 06:21:32;;;;;;;15.85;10.27;;;;;;;25.23;65.97;99588.59;4986222;28;20127;-72
2021/08/01 06:24:17;;;;;;;;;;;;;;;25.40;65.73;99589.28;4991566;28;20049;-72
2021/08/01 06:27:04;;;;;;;14.75;9.60;;;;;;;25.41;65.03;99593.63;4994077;28;19925;-73
2021/08/01 06:29:49;;;;;;;15.85;9.75;;;;;;;25.46;64.69;99585.50;4991918;28;20049;-73
2021/08/01 06:32:34;;;;;;;12.55;9.27;;;;;;;25.61;64.17;99590.66;4991629;28;20050;-73
2021/08/01 06:35:19;;;;;;;11.05;9.40;;;;;;;25.77;63.60;99596.91;4992843;28;20076;-73
2021/08/01 06:38:04;;;;;;;14.00;9.75;;;;;;;25.80;63.52;99604.38;4992774;28;20045;-73
2021/08/01 06:40:49;;;;;;;13.60;10.48;;;;;;;25.91;63.11;99592.91;4993161;28;20049;-73
2021/08/01 06:43:34;;;;;;;11.82;8.75;;;;;;;26.04;62.26;99601.25;4978416;28;20424;-72
2021/08/01 06:46:19;;;;;;;21.48;16.50;;;;;;;26.12;62.05;99597.78;4983634;28;20053;-72
2021/08/01 06:49:03;;;;;;;14.90;9.50;;;;;;;26.11;62.36;99590.66;4982707;28;20061;-73
2021/08/01 06:51:48;;;;;;;;;;;;;;;26.21;61.50;99600.66;4976712;28;20053;-73
2021/08/01 06:54:32;;;;;;;15.18;10.57;;;;;;;26.36;60.63;99604.56;4983033;28;19926;-73
2021/08/01 06:57:18;;;;;;;13.02;9.85;;;;;;;26.53;60.05;99596.84;4985710;28;20053;-73
2021/08/01 07:00:04;;;;;;;20.10;9.35;;;;;;;26.60;59.61;99596.59;4985133;28;20069;-73
2021/08/01 07:02:57;;;;;;;13.25;10.68;;;;;;;26.69;58.88;99595.88;4989998;28;20515;-73
2021/08/01 07:05:41;;;;;;;15.00;10.18;;;;;;;26.78;58.80;99604.31;4996718;28;20057;-73
2021/08/01 07:08:26;;;;;;;13.48;9.80;;;;;;;26.80;60.21;99604.66;4983013;28;20101;-73
2021/08/01 07:11:11;;;;;;;15.23;10.40;;;;;;;26.82;59.39;99607.75;4981735;28;20443;-72
2021/08/01 07:13:56;;;;;;;12.20;9.13;;;;;;;26.82;59.00;99619.69;4978734;28;20050;-71
2021/08/01 07:16:42;;;;;;;14.30;9.85;;;;;;;26.84;59.40;99608.09;4983749;28;20041;-73
2021/08/01 07:19:27;;;;;;;15.40;9.88;;;;;;;26.85;59.62;99606.09;4979673;28;20077;-73
2021/08/01 07:22:12;;;;;;;17.17;9.93;;;;;;;26.91;59.13;99607.88;4971325;28;20045;-73
2021/08/01 07:24:58;;;;;;;13.50;10.18;;;;;;;26.95;58.81;99605.75;4989092;28;20045;-73
2021/08/01 07:27:43;;;;;;;18.40;10.65;;;;;;;26.90;59.09;99616.69;4990057;28;20057;-73
2021/08/01 07:30:31;;;;;;;15.50;10.35;;;;;;;26.94;58.82;99623.72;4984787;28;20058;-71
2021/08/01 07:33:20;;;;;;;14.10;9.82;;;;;;;26.97;59.50;99620.00;4988919;28;20085;-71
2021/08/01 07:36:08;;;;;;;12.98;10.05;;;;;;;27.07;59.52;99620.88;4977493;28;20081;-71
2021/08/01 07:38:53;;;;;;;20.52;10.63;;;;;;;27.19;58.71;99620.81;4985056;28;20427;-71
2021/08/01 07:41:38;;;;;;;13.20;10.57;;;;;;;27.26;59.10;99624.56;4988278;28;20045;-71
2021/08/01 07:44:26;;;;;;;13.30;10.45;;;;;;;27.16;59.80;99615.34;4973073;28;20050;-71
2021/08/01 07:47:22;;;;;;;17.77;11.77;;;;;;;27.24;58.82;99625.78;4984986;28;20058;-71
2021/08/01 07:50:07;;;;;;;19.95;12.02;;;;;;;27.35;58.74;99610.66;4992861;28;20045;-73
2021/08/01 07:52:52;;;;;;;17.73;12.82;;;;;;;27.26;59.07;99619.75;4990788;28;20539;-72
2021/08/01 07:55:37;;;;;;;16.40;12.45;;;;;;;27.19;58.99;99620.81;4996397;28;20057;-72
2021/08/01 07:58:22;;;;;;;18.52;10.82;;;;;;;27.17;59.20;99625.28;4981268;28;20045;-72
2021/08/01 08:01:07;;;;;;;18.30;11.38;;;;;;;27.23;59.53;99627.03;4997145;28;20045;-71
2021/08/01 08:03:51;;;;;;;;;;;;;;;27.32;60.34;99625.53;4997312;28;20054;-73
2021/08/01 08:06:36;;;;;;;15.03;11.20;;;;;;;27.32;60.53;99620.75;4982784;28;19915;-73
2021/08/01 08:09:26;;;;;;;19.67;12.52;;;;;;;27.45;60.00;99620.66;4983209;28;20305;-72
2021/08/01 08:12:10;;;;;;;27.92;12.13;;;;;;;27.41;60.56;99620.78;4991529;28;20566;-72
2021/08/01 08:14:55;;;;;;;18.77;11.75;;;;;;;27.45;60.27;99615.84;4998825;28;20518;-73
2021/08/01 08:17:40;;;;;;;17.17;12.05;;;;;;;27.56;59.95;99612.69;4990250;28;20049;-73
2021/08/01 08:20:25;;;;;;;16.15;11.77;;;;;;;27.65;59.56;99601.53;5000622;28;20057;-73
2021/08/01 08:23:10;;;;;;;18.58;10.85;;;;;;;27.68;59.32;99599.84;5001749;28;20046;-74
2021/08/01 08:25:56;;;;;;;16.10;10.95;;;;;;;27.77;59.61;99600.66;4992966;28;20050;-74
2021/08/01 08:28:41;;;;;;;16.77;9.95;;;;;;;27.76;57.96;99599.09;4988511;28;20093;-74
2021/08/01 08:31:26;;;;;;;15.85;10.27;;;;;;;27.85;56.84;99604.72;4984203;28;20069;-74
2021/08/01 08:34:11;;;;;;;14.23;7.13;;;;;;;27.95;53.72;99611.13;5001767;28;20092;-74
2021/08/01 08:37:00;;;;;;;11.18;6.15;;;;;;;28.03;53.17;99604.81;4969954;28;20049;-74
2021/08/01 08:39:45;;;;;;;11.48;6.63;;;;;;;28.13;53.36;99607.66;4962561;28;20058;-73
2021/08/01 08:42:30;;;;;;;11.25;8.40;;;;;;;28.09;54.70;99610.53;4975416;28;20054;-74
2021/08/01 08:45:15;;;;;;;15.60;8.88;;;;;;;28.26;54.93;99613.91;4987643;28;20041;-74
2021/08/01 08:48:01;;;;;;;16.58;8.15;;;;;;;28.29;54.61;99615.78;4981962;28;20408;-74
2021/08/01 08:50:49;;;;;;;13.20;9.02;;;;;;;28.21;55.05;99609.69;4991183;28;20053;-75
2021/08/01 08:53:39;;;;;;;14.05;7.75;;;;;;;28.28;54.34;99622.59;5001235;28;20053;-75
2021/08/01 08:56:24;;;;;;;11.82;8.10;;;;;;;28.15;54.93;99619.13;5001409;28;20069;-74
2021/08/01 08:59:12;;;;;;;10.68;5.18;;;;;;;27.98;52.22;99622.19;5001256;28;20057;-74
2021/08/01 09:01:57;;;;;;;7.43;4.78;;;;;;;28.08;53.41;99632.16;4994692;28;20641;-74
2021/08/01 09:04:44;;;;;;;15.13;6.35;;;;;;;28.06;52.06;99623.44;5000775;28;20057;-75
2021/08/01 09:07:29;;;;;;;12.38;5.60;;;;;;;28.24;53.34;99628.31;5001186;28;20076;-74
2021/08/01 09:10:15;;;;;;;10.90;7.53;;;;;;;28.25;54.06;99629.09;4961910;28;20070;-74
2021/08/01 09:13:00;;;;;;;14.48;8.02;;;;;;;28.21;53.47;99628.47;4965710;28;20514;-74
2021/08/01 09:15:55;;;;;;;16.95;6.88;;;;;;;28.22;54.85;99625.22;4962237;28;20515;-75
2021/08/01 09:18:41;;;;;;;12.00;8.10;;;;;;;28.20;54.92;99624.13;4985246;28;20045;-74
2021/08/01 09:21:29;;;;;;;14.07;7.05;;;;;;;28.19;54.77;99628.94;4974864;28;20054;-74
2021/08/01 09:24:14;;;;;;;12.88;7.57;;;;;;;28.15;54.11;99624.72;4981179;28;20045;-74
2021/08/01 09:27:02;;;;;;;9.65;6.28;;;;;;;28.22;55.35;99614.03;4980674;28;20057;-74
2021/08/01 09:29:49;;;;;;;10.75;6.25;;;;;;;28.42;54.53;99611.59;5000548;28;20050;-74
2021/08/01 09:32:49;;;;;;;11.75;6.07;;;;;;;28.44;52.06;99599.97;4994750;28;20510;-74
2021/08/01 09:35:34;;;;;;;12.57;5.13;;;;;;;28.35;52.00;99599.91;4983349;28;20042;-75
2021/08/01 09:38:20;;;;;;;17.77;7.18;;;;;;;28.43;52.67;99596.38;4992710;28;20395;-74
2021/08/01 09:41:05;;;;;;;11.25;5.38;;;;;;;28.46;53.21;99594.66;4985865;28;20049;-74
2021/08/01 09:43:55;;;;;;;15.88;5.05;;;;;;;28.49;52.34;99583.34;4984652;28;20065;-74
2021/08/01 09:46:43;;;;;;;6.57;4.15;;;;;;;28.66;51.78;99575.41;5000451;28;20045;-74
2021/08/01 09:49:29;;;;;;;10.32;4.43;;;;;;;28.71;51.17;99577.56;4999958;28;20526;-74
2021/08/01 09:52:23;;;;;;;11.45;4.45;;;;;;;28.70;49.99;99572.47;4988744;28;20518;-74
2021/08/01 09:55:22;;;;;;;6.55;3.92;;;;;;;28.72;49.60;99556.78;4999486;28;20065;-74
2021/08/01 09:58:07;;;;;;;10.70;4.80;;;;;;;28.79;50.06;99562.06;4988104;28;20185;-74
2021/08/01 10:00:59;;;;;;;10.52;4.60;;;;;;;28.82;50.06;99565.94;4982705;28;20069;-74
2021/08/01 10:03:47;;;;;;;14.18;6.15;;;;;;;28.94;50.57;99558.63;5000200;28;20049;-74
2021/08/01 10:06:31;;;;;;;8.35;3.78;;;;;;;28.98;50.42;99550.84;4995363;28;20058;-74
2021/08/01 10:09:24;;;;;;;11.48;4.72;;;;;;;29.05;50.49;99564.53;5000273;28;20522;-74
2021/08/01 10:12:10;;;;;;;11.38;4.72;;;;;;;29.21;49.10;99564.94;4993911;28;20053;-74
2021/08/01 10:14:55;;;;;;;7.43;4.35;;;;;;;29.14;48.98;99565.28;4999553;28;20522;-74
2021/08/01 10:17:40;;;;;;;16.77;4.28;;;;;;;29.05;49.44;99572.94;4999611;28;20048;-74
2021/08/01 10:20:27;;;;;;;11.65;5.07;;;;;;;29.17;49.09;99567.13;4996834;28;20050;-74
2021/08/01 10:23:12;;;;;;;11.52;3.92;;;;;;;29.20;48.42;99568.22;4999619;28;20411;-74
2021/08/01 10:26:00;;;;;;;12.63;3.80;;;;;;;29.20;47.99;99574.63;4988405;28;20050;-74
2021/08/01 10:28:51;;;;;;;9.50;4.70;;;;;;;29.36;48.79;99572.75;4989950;28;20119;-74
2021/08/01 10:31:50;;;;;;;5.97;3.88;;;;;;;29.33;47.51;99580.81;4986433;28;20534;-74
2021/08/01 10:34:45;;;;;;;5.85;3.40;;;;;;;29.32;47.80;99568.06;4988910;28;20053;-74
2021/08/01 10:37:39;;;;;;;12.40;3.38;;;;;;;29.50;47.11;99564.44;4992652;28;20045;-74
2021/08/01 10:40:26;;;;;;;7.57;3.53;;;;;;;29.38;46.95;99584.22;4979040;28;20527;-74
2021/08/01 10:43:15;;;;;;;6.25;3.70;;;;;;;29.40;45.98;99581.75;4979692;28;20045;-74
2021/08/01 10:46:01;;;;;;;8.40;3.55;;;;;;;29.36;46.63;99570.69;4960484;28;20066;-74
2021/08/01 10:48:46;;;;;;;9.40;3.20;;;;;;;29.29;46.97;99577.38;4952988;28;20063;-74
2021/08/01 10:51:32;;;;;;;4.85;2.72;;;;;;;29.42;47.47;99584.84;4956683;28;20070;-74
2021/08/01 10:54:19;;;;;;;10.38;3.47;;;;;;;29.40;47.33;99592.94;4960366;28;20051;-74
2021/08/01 10:57:15;;;;;;;12.75;3.78;;;;;;;29.37;46.03;99589.06;4960510;28;20131;-74
2021/08/01 11:00:04;;;;;;;11.65;3.38;;;;;;;29.46;45.72;99585.47;4960372;28;20042;-74
2021/08/01 11:03:15;;;;;;;6.88;2.97;;;;;;;29.64;45.92;99597.38;4960586;28;20054;-74
2021/08/01 11:06:01;;;;;;;10.68;3.53;;;;;;;29.60;47.05;99591.19;4979718;28;20514;-74
2021/08/01 11:09:12;;;;;;;11.18;3.63;;;;;;;29.56;45.79;99579.34;4979596;28;20058;-74
2021/08/01 11:12:30;;;;;;;8.68;3.00;;;;;;;29.58;44.49;99576.84;4955077;28;20042;-74
2021/08/01 11:15:15;;;;;;;11.23;3.08;;;;;;;29.64;43.86;99582.59;4981677;28;20054;-74
2021/08/01 11:18:08;;;;;;;13.98;3.58;;;;;;;29.52;44.99;99566.75;4992453;28;20053;-74
2021/08/01 11:20:54;;;;;;;13.10;3.50;;;;;;;29.55;45.17;99571.44;4996436;28;20427;-74
2021/08/01 11:23:45;;;;;;;8.93;3.03;;;;;;;29.60;44.40;99565.97;4998996;28;20053;-74
2021/08/01 11:26:30;;;;;;;7.05;3.00;;;;;;;29.51;45.14;99543.56;4993106;28;20046;-74
2021/08/01 11:29:15;;;;;;;6.00;3.05;;;;;;;29.52;44.70;99528.31;4984982;28;20049;-74
2021/08/01 11:32:07;;;;;;;6.50;3.30;;;;;;;29.28;45.17;99545.03;4997385;28;20053;-74
2021/08/01 11:35:17;;;;;;;11.23;2.63;;;;;;;29.10;45.13;99555.50;5002766;28;20411;-74
2021/08/01 11:38:17;;;;;;;5.25;3.03;;;;;;;28.88;45.81;99564.06;4967712;28;20046;-74
2021/08/01 11:41:02;;;;;;;9.95;2.97;;;;;;;28.81;44.72;99575.56;4992449;28;20416;-74
2021/08/01 11:44:06;;;;;;;11.98;3.58;;;;;;;28.68;45.73;99566.53;4983537;28;20053;-74
2021/08/01 11:47:02;;;;;;;6.57;3.60;;;;;;;28.65;46.35;99587.81;4983238;28;20042;-74
2021/08/01 11:49:49;;;;;;;8.52;3.22;;;;;;;28.52;45.75;99573.22;4991746;28;20049;-74
2021/08/01 11:52:45;;;;;;;14.50;2.95;;;;;;;28.53;46.13;99580.38;4995701;28;20050;-74
2021/08/01 11:55:30;;;;;;;5.13;2.83;;;;;;;28.44;45.72;99581.13;4964218;28;20065;-74
2021/08/01 11:58:15;;;;;;;9.90;3.35;;;;;;;28.60;46.32;99582.84;5002609;28;20046;-74
2021/08/01 12:01:00;;;;;;;5.03;3.15;;;;;;;28.82;46.87;99582.75;4980240;28;20519;-74
2021/08/01 12:03:47;;;;;;;6.40;3.38;;;;;;;28.93;47.23;99585.84;4969698;28;20065;-74
2021/08/01 12:06:38;;;;;;;5.75;3.55;;;;;;;29.07;45.82;99587.22;4963665;28;20058;-74
2021/08/01 12:09:28;;;;;;;6.05;3.05;;;;;;;29.11;46.69;99588.59;4963413;28;20512;-74
2021/08/01 12:12:13;;;;;;;10.00;3.10;;;;;;;29.28;46.16;99586.25;4976528;28;20050;-75
2021/08/01 12:14:58;;;;;;;7.55;3.60;;;;;;;29.28;46.20;99575.06;4982465;28;20061;-74
2021/08/01 12:17:43;;;;;;;5.50;2.80;;;;;;;29.47;45.97;99590.59;4982483;28;20058;-74
2021/08/01 12:20:34;;;;;;;5.78;3.08;;;;;;;29.47;45.43;99598.22;4961856;28;20054;-74
2021/08/01 12:23:36;;;;;;;4.85;2.95;;;;;;;29.31;44.96;99597.31;4962884;28;20061;-74
2021/08/01 12:26:38;;;;;;;8.68;3.20;;;;;;;29.25;45.96;99604.00;4957189;28;20068;-74
2021/08/01 12:29:32;;;;;;;8.73;3.65;;;;;;;28.92;46.88;99626.28;4962991;28;20400;-74
2021/08/01 12:32:37;;;;;;;5.00;3.60;;;;;;;28.88;47.03;99640.44;4957026;28;20050;-74
2021/08/01 12:35:26;;;;;;;8.73;3.65;;;;;;;28.52;46.99;99643.16;4968949;28;20042;-74
2021/08/01 12:38:12;;;;;;;9.20;3.80;;;;;;;28.27;46.65;99647.00;4989135;28;20045;-74
2021/08/01 12:41:11;;;;;;;5.13;2.55;;;;;;;28.06;46.09;99647.81;4997922;28;20049;-74
2021/08/01 12:43:56;;;;;;;7.28;3.40;;;;;;;27.99;46.28;99639.72;4994973;28;20046;-74
2021/08/01 12:46:45;;;;;;;6.88;3.78;;;;;;;27.92;46.80;99651.19;5001655;28;20057;-74
2021/08/01 12:49:30;;;;;;;7.30;3.55;;;;;;;27.64;47.14;99653.84;4985782;28;20049;-74
2021/08/01 12:52:21;;;;;;;7.45;3.30;;;;;;;27.13;48.54;99680.44;4991101;28;20053;-74
2021/08/01 12:55:08;;;;;;;12.55;4.03;;;;;;;26.88;49.63;99675.75;5001298;28;20050;-74
2021/08/01 12:58:03;;;;;;;34.85;3.83;;;;;;;26.46;49.84;99677.16;5001046;28;20049;-74
2021/08/01 13:00:55;;;;;;;7.07;2.83;;;;;;;26.17;49.88;99703.13;4984504;28;20041;-74
2021/08/01 13:03:42;;;;;;;12.02;3.08;;;;;;;25.95;50.42;99693.88;5000869;28;20411;-74
2021/08/01 13:06:28;;;;;;;6.30;3.78;;;;;;;25.82;50.68;99693.06;4964678;28;20058;-74
2021/08/01 13:09:19;;;;;;;6.00;2.53;;;;;;;25.50;52.65;99678.03;4970945;28;20041;-74
2021/08/01 13:12:12;;;;;;;8.85;3.20;;;;;;;25.89;53.88;99678.94;4985006;28;20053;-74
2021/08/01 13:14:58;;;;;;;11.55;3.92;;;;;;;26.38;52.33;99676.59;5000981;28;20045;-74